Flight Track Log - Related Links

Times and Time Zones

All times are in EDT time to prevent confusion due to time zone crossing. See the QFA556 flight status page for this flight to view local times or setup timezone preferences in your user account.

Time Position Orientation Groundspeed Altitude Reporting Facility
EDT Latitude Longitude Course Direction KTS MPH feet Rate Location/Type
Thu 07:19:50 AM -33.9746 151.1949 126° Southeast 155 178 900  Level Aus ATC (RADAR)
Thu 07:20:55 AM -34.0081 151.2514 143° Southeast 227 261 3,400 2,832 Climbing Aus ATC (RADAR)
Thu 07:21:55 AM -34.0657 151.3038 121° Southeast 272 313 6,800 3,529 Climbing Aus ATC (RADAR)
Thu 07:22:37 AM -34.0917 151.3561 58° Northeast 284 327 9,400 3,395 Climbing Aus ATC (RADAR)
Thu 07:23:11 AM -34.0673 151.4032 17° North 298 343 11,100 2,294 Climbing Aus ATC (RADAR)
Thu 07:23:45 AM -34.0164 151.4222 16° North 340 391 12,000 2,640 Climbing Aus ATC (RADAR)
Thu 07:24:26 AM -33.9510 151.4453 17° North 366 421 14,400 3,520 Climbing Aus ATC (RADAR)
Thu 07:25:00 AM -33.8942 151.4666 17° North 367 422 16,400 3,339 Climbing Aus ATC (RADAR)
Thu 07:26:21 AM -33.7546 151.5183 17° North 396 456 20,800 3,176 Climbing Aus ATC (RADAR)
Thu 07:27:16 AM -33.6560 151.5547 18° North 408 470 23,600 2,905 Climbing Aus ATC (RADAR)
Thu 07:27:56 AM -33.5834 151.5825 17° North 413 475 25,400 2,720 Climbing Aus ATC (RADAR)
Thu 07:28:31 AM -33.5179 151.6070 17° North 426 490 27,000 2,571 Climbing Aus ATC (RADAR)
Thu 07:29:06 AM -33.4507 151.6320 17° North 433 498 28,400 2,400 Climbing Aus ATC (RADAR)
Thu 07:29:36 AM -33.3921 151.6540 17° North 441 507 29,600 2,585 Climbing Aus ATC (RADAR)
Thu 07:30:11 AM -33.3233 151.6797 17° North 444 511 31,200 2,274 Climbing Aus ATC (RADAR)
Thu 07:31:11 AM -33.2066 151.7230 17° North 439 505 33,200 1,000 Climbing Aus ATC (RADAR)
Thu 07:32:11 AM -33.0891 151.7670 17° North 442 509 33,200  Level Aus ATC (RADAR)
Thu 07:32:51 AM -33.0113 151.7961 17° North 439 505 33,200  Level Aus ATC (RADAR)
Thu 07:33:26 AM -32.9430 151.8213 17° North 440 506 33,200  Level Aus ATC (RADAR)
Thu 07:34:01 AM -32.8746 151.8467 17° North 441 507 33,200  Level Aus ATC (RADAR)
Thu 07:34:31 AM -32.8159 151.8682 17° North 440 506 33,200  Level Aus ATC (RADAR)
Thu 07:35:05 AM -32.7473 151.8937 17° North 442 509 33,200  Level Aus ATC (RADAR)
Thu 07:36:15 AM -32.6098 151.9443 17° North 444 511 33,200  Level Aus ATC (RADAR)
Thu 07:37:15 AM -32.4912 151.9883 17° North 444 511 33,200  Level Aus ATC (RADAR)
Thu 07:38:04 AM -32.3929 152.0246 17° North 446 513 33,200  Level Aus ATC (RADAR)
Thu 07:38:39 AM -32.3232 152.0493 18° North 448 516 33,200  Level Aus ATC (RADAR)
Thu 07:39:11 AM -32.2638 152.0719 17° North 444 511 33,200  Level Aus ATC (RADAR)
Thu 07:39:44 AM -32.1946 152.0965 17° North 448 516 33,200  Level Aus ATC (RADAR)
Thu 07:40:21 AM -32.1250 152.1222 17° North 445 512 33,200  Level Aus ATC (RADAR)
Thu 07:41:29 AM -31.9863 152.1723 17° North 448 516 33,200  Level Aus ATC (RADAR)
Thu 07:42:30 AM -31.8666 152.2151 17° North 447 514 33,200 -55 Level Aus ATC (RADAR)
Thu 07:43:19 AM -31.7682 152.2513 17° North 448 516 33,100  Descending Aus ATC (RADAR)
Thu 07:43:50 AM -31.7082 152.2733 17° North 446 513 33,200 90 Climbing Aus ATC (RADAR)
Thu 07:44:26 AM -31.6389 152.2982 17° North 446 513 33,200  Level Aus ATC (RADAR)
Thu 07:45:30 AM -31.5101 152.3450 17° North 444 511 33,200  Level Aus ATC (RADAR)
Thu 07:46:10 AM -31.4312 152.3730 17° North 443 510 33,200 -80 Level Aus ATC (RADAR)
Thu 07:46:45 AM -31.3621 152.3985 17° North 444 511 33,100  Descending Aus ATC (RADAR)
Thu 07:47:23 AM -31.2833 152.4263 17° North 443 510 33,200 75 Climbing Aus ATC (RADAR)
Thu 07:48:05 AM -31.2031 152.4553 17° North 444 511 33,200 -60 Level Aus ATC (RADAR)
Thu 07:49:03 AM -31.0848 152.4971 17° North 447 514 33,100  Descending Aus ATC (RADAR)
Thu 07:49:43 AM -31.0054 152.5254 17° North 449 517 33,200 83 Climbing Aus ATC (RADAR)
Thu 07:50:15 AM -30.9447 152.5467 17° North 446 513 33,200 -78 Level Aus ATC (RADAR)
Thu 07:51:00 AM -30.8555 152.5783 17° North 444 511 33,100  Descending Aus ATC (RADAR)
Thu 07:51:33 AM -30.7874 152.6027 17° North 449 517 33,200 92 Climbing Aus ATC (RADAR)
Thu 07:52:05 AM -30.7268 152.6241 17° North 444 511 33,200  Level Aus ATC (RADAR)
Thu 07:52:40 AM -30.6575 152.6483 17° North 444 511 33,200  Level Aus ATC (RADAR)
Thu 07:53:10 AM -30.5980 152.6692 17° North 443 510 33,200  Level Aus ATC (RADAR)
Thu 07:53:45 AM -30.5285 152.6937 17° North 443 510 33,200  Level Aus ATC (RADAR)
Thu 07:54:18 AM -30.4608 152.7184 17° North 449 517 33,200  Level Aus ATC (RADAR)
Thu 07:54:58 AM -30.3817 152.7459 16° North 446 513 33,200  Level Aus ATC (RADAR)
Thu 07:55:29 AM -30.3206 152.7665 17° North 441 507 33,200  Level Aus ATC (RADAR)
Thu 07:56:19 AM -30.2218 152.8012 17° North 442 509 33,200  Level Aus ATC (RADAR)
Thu 07:56:54 AM -30.1528 152.8257 17° North 442 509 33,200  Level Aus ATC (RADAR)
Thu 07:57:27 AM -30.0852 152.8501 17° North 447 514 33,200  Level Aus ATC (RADAR)
Thu 07:58:07 AM -30.0062 152.8774 16° North 445 512 33,200  Level Aus ATC (RADAR)
Thu 07:58:38 AM -29.9450 152.8979 16° North 443 510 33,200  Level Aus ATC (RADAR)
Thu 07:59:13 AM -29.8756 152.9215 17° North 442 509 33,200  Level Aus ATC (RADAR)
Thu 08:00:17 AM -29.7485 152.9665 16° North 446 513 33,200  Level Aus ATC (RADAR)
Thu 08:00:49 AM -29.6878 152.9865 17° North 440 506 33,200  Level Aus ATC (RADAR)
Thu 08:01:44 AM -29.5791 153.0237 17° North 440 506 33,200  Level Aus ATC (RADAR)
Thu 08:02:43 AM -29.4597 153.0653 17° North 445 512 33,200  Level Aus ATC (RADAR)
Thu 08:03:23 AM -29.3802 153.0925 17° North 443 510 33,200  Level Aus ATC (RADAR)
Thu 08:03:53 AM -29.3203 153.1132 16° North 445 512 33,200  Level Aus ATC (RADAR)
Thu 08:04:28 AM -29.2505 153.1364 17° North 444 511 33,200  Level Aus ATC (RADAR)
Thu 08:05:09 AM -29.1712 153.1646 17° North 444 511 33,200 -81 Level Aus ATC (RADAR)
Thu 08:05:42 AM -29.1021 153.1891 17° North 451 519 33,100 -682 Descending Aus ATC (RADAR)
Thu 08:06:37 AM -28.9928 153.2262 16° North 442 509 32,200 -1,676 Descending Aus ATC (RADAR)
Thu 08:07:33 AM -28.8872 153.2617 17° North 417 480 30,000 -2,308 Descending Aus ATC (RADAR)
Thu 08:08:21 AM -28.7947 153.2943 16° North 417 480 28,200 -2,000 Descending Aus ATC (RADAR)
Thu 08:09:18 AM -28.6961 153.3271 16° North 389 448 26,500 -1,979 Descending Aus ATC (RADAR)
Thu 08:09:58 AM -28.6262 153.3493 16° North 382 440 25,000 -2,160 Descending Aus ATC (RADAR)
Thu 08:10:33 AM -28.5666 153.3691 17° North 375 432 23,800 -1,875 Descending Aus ATC (RADAR)
Thu 08:11:18 AM -28.4934 153.3942 18° North 358 412 22,500 -1,920 Descending Aus ATC (RADAR)
Thu 08:11:48 AM -28.4462 153.4115 17° North 350 403 21,400 -2,492 Descending Aus ATC (RADAR)
Thu 08:12:23 AM -28.3911 153.4304 16° North 345 397 19,800 -2,647 Descending Aus ATC (RADAR)
Thu 08:12:56 AM -28.3363 153.4488 15° North 358 412 18,400 -2,137 Descending Aus ATC (RADAR)
Thu 08:13:36 AM -28.2734 153.4679 357° North 351 404 17,200 -1,833 Descending Aus ATC (RADAR)
Thu 08:14:08 AM -28.2293 153.4653 332° Northwest 292 336 16,200 -1,690 Descending Aus ATC (RADAR)
Thu 08:14:47 AM -28.1709 153.4305 335° Northwest 329 379 15,200 -1,714 Descending Aus ATC (RADAR)
Thu 08:15:46 AM -28.0900 153.3876 336° Northwest 318 366 13,400 -2,000 Descending Aus ATC (RADAR)
Thu 08:16:32 AM -28.0284 153.3560 334° Northwest 323 372 11,700 -2,143 Descending Aus ATC (RADAR)
Thu 08:17:10 AM -27.9742 153.3259 334° Northwest 332 382 10,400 -1,479 Descending Aus ATC (RADAR)
Thu 08:17:45 AM -27.9267 153.3001 329° Northwest 323 372 9,900 -909 Descending Aus ATC (RADAR)
Thu 08:18:16 AM -27.8885 153.2736 322° Northwest 320 368 9,400 -885 Descending Aus ATC (RADAR)
Thu 08:18:46 AM -27.8533 153.2424 324° Northwest 318 366 9,000 -750 Descending Aus ATC (RADAR)
Thu 08:19:20 AM -27.8137 153.2094 320° Northwest 294 338 8,600 -1,040 Descending Aus ATC (RADAR)
Thu 08:20:01 AM -27.7733 153.1716 326° Northwest 282 325 7,700 -1,527 Descending Aus ATC (RADAR)
Thu 08:21:10 AM -27.6983 153.1136 322° Northwest 278 320 5,800 -1,541 Descending Aus ATC (RADAR)
Thu 08:21:50 AM -27.6582 153.0778 328° Northwest 273 314 4,900 -1,120 Descending Aus ATC (RADAR)
Thu 08:22:25 AM -27.6238 153.0531 329° Northwest 247 284 4,400 -1,015 Descending Aus ATC (RADAR)
Thu 08:22:55 AM -27.5963 153.0345 351° North 229 264 3,800 -831 Descending Aus ATC (RADAR)
Thu 08:23:30 AM -27.5635 153.0287 23° Northeast 209 241 3,500 -738 Descending Aus ATC (RADAR)
Thu 08:24:00 AM -27.5371 153.0414 26° Northeast 206 237 3,000 -1,108 Descending Aus ATC (RADAR)
Thu 08:24:35 AM -27.5087 153.0570 28° Northeast 192 221 2,300 -1,029 Descending Aus ATC (RADAR)
Thu 08:25:10 AM -27.4831 153.0721 27° Northeast 174 200 1,800 -771 Descending Aus ATC (RADAR)
Thu 08:25:45 AM -27.4622 153.0840 27° Northeast 143 165 1,400 -686 Descending Aus ATC (RADAR)
Thu 08:26:20 AM -27.4437 153.0947 27° Northeast 131 151 1,000 -750 Descending Aus ATC (RADAR)
Thu 08:27:05 AM -27.4185 153.1089 27° Northeast 139 160 400 -800 Descending Aus ATC (RADAR)

Login

Don't have an account? Register now (free) for customized features, flight alerts, and more!